Time;durP1;ratioP1;P1;durP2;ratioP2;P2;SDS_P1;SDS_P2;PMS_P1;PMS_P2;Temp;Humidity;BMP_temperature;BMP_pressure;BME280_temperature;BME280_humidity;BME280_pressure;Samples;Min_cycle;Max_cycle;Signal;HPM_P1;HPM_P2
2022/04/24 00:01:45;;;;;;;8.87;7.63;;;10.90;76.00;;;;;;5063794;28;20489;-47
2022/04/24 00:04:11;;;;;;;10.07;7.43;;;10.80;76.70;;;;;;5066520;28;20033;-49
2022/04/24 00:06:39;;;;;;;7.75;6.95;;;10.80;76.30;;;;;;5068008;28;20036;-49
2022/04/24 00:09:05;;;;;;;7.38;6.68;;;10.80;76.70;;;;;;5063196;28;20041;-48
2022/04/24 00:11:31;;;;;;;8.10;6.90;;;10.80;76.90;;;;;;5049252;28;20045;-47
2022/04/24 00:13:57;;;;;;;7.85;6.90;;;10.70;76.80;;;;;;5065709;28;20036;-49
2022/04/24 00:16:22;;;;;;;12.30;7.07;;;10.70;76.80;;;;;;5051095;28;20130;-47
2022/04/24 00:18:48;;;;;;;10.20;7.20;;;10.70;77.10;;;;;;5068687;28;20389;-48
2022/04/24 00:21:14;;;;;;;7.05;6.40;;;10.70;77.00;;;;;;5063384;28;20036;-47
2022/04/24 00:23:39;;;;;;;7.05;6.20;;;10.60;77.10;;;;;;5073130;28;20543;-46
2022/04/24 00:26:05;;;;;;;9.70;6.47;;;10.60;77.30;;;;;;5066595;28;20049;-48
2022/04/24 00:28:31;;;;;;;10.10;7.68;;;10.50;77.40;;;;;;5069838;28;20037;-49
2022/04/24 00:30:57;;;;;;;7.80;6.47;;;10.50;77.40;;;;;;5057376;28;20045;-46
2022/04/24 00:33:23;;;;;;;9.45;6.53;;;10.50;77.70;;;;;;5053742;28;20314;-47
2022/04/24 00:35:48;;;;;;;11.52;6.68;;;10.50;77.70;;;;;;5051674;28;20102;-47
2022/04/24 00:38:14;;;;;;;8.55;5.95;;;10.40;78.00;;;;;;5054303;28;20040;-48
2022/04/24 00:40:39;;;;;;;8.97;6.77;;;10.40;77.90;;;;;;5052675;28;20506;-48
2022/04/24 00:43:05;;;;;;;11.83;6.50;;;10.40;78.30;;;;;;5061726;28;20044;-47
2022/04/24 00:45:31;;;;;;;9.20;6.07;;;10.40;78.00;;;;;;5061864;28;20124;-46
2022/04/24 00:47:56;;;;;;;6.77;6.17;;;10.40;78.10;;;;;;5059212;28;20064;-46
2022/04/24 00:50:22;;;;;;;7.55;6.30;;;10.30;77.90;;;;;;5063886;28;20099;-46
2022/04/24 00:52:48;;;;;;;7.38;6.68;;;10.30;78.30;;;;;;5053437;28;20025;-46
2022/04/24 00:55:15;;;;;;;8.50;6.53;;;10.30;78.40;;;;;;5052151;28;20037;-48
2022/04/24 00:57:41;;;;;;;7.82;6.32;;;10.30;78.90;;;;;;5053354;28;20037;-46
2022/04/24 01:00:08;;;;;;;10.20;6.45;;;10.20;78.50;;;;;;5067224;28;20490;-46
2022/04/24 01:02:34;;;;;;;6.47;5.18;;;10.20;78.60;;;;;;5052590;28;20052;-47
2022/04/24 01:05:00;;;;;;;8.35;6.60;;;10.20;78.70;;;;;;5068276;28;20045;-46
2022/04/24 01:07:25;;;;;;;7.90;5.40;;;10.10;78.80;;;;;;5052828;28;20118;-46
2022/04/24 01:09:51;;;;;;;6.70;6.10;;;10.10;78.80;;;;;;5069684;28;20083;-46
2022/04/24 01:12:16;;;;;;;7.70;5.63;;;10.10;79.40;;;;;;5054744;28;20119;-48
2022/04/24 01:14:42;;;;;;;7.40;5.50;;;10.10;79.20;;;;;;5071718;28;20041;-49
2022/04/24 01:17:08;;;;;;;10.03;8.03;;;10.10;79.60;;;;;;5053818;28;20529;-46
2022/04/24 01:19:33;;;;;;;8.98;7.22;;;10.00;79.50;;;;;;5031812;28;20037;-47
2022/04/24 01:21:59;;;;;;;10.23;7.13;;;10.00;79.50;;;;;;5049681;28;20041;-47
2022/04/24 01:24:27;;;;;;;6.27;5.60;;;10.00;79.60;;;;;;5055670;28;20033;-46
2022/04/24 01:26:53;;;;;;;7.20;6.50;;;9.90;79.40;;;;;;5058604;28;20076;-46
2022/04/24 01:29:19;;;;;;;11.35;6.60;;;9.90;79.80;;;;;;5058434;28;20122;-46
2022/04/24 01:31:47;;;;;;;6.25;5.10;;;9.90;79.80;;;;;;5057413;28;20425;-47
2022/04/24 01:34:13;;;;;;;7.13;6.43;;;9.90;79.80;;;;;;5062361;28;20690;-47
2022/04/24 01:36:39;;;;;;;9.75;5.72;;;9.90;79.60;;;;;;5050158;28;20048;-46
2022/04/24 01:39:04;;;;;;;8.80;6.35;;;9.90;80.40;;;;;;5059899;28;20047;-46
2022/04/24 01:41:31;;;;;;;7.75;6.20;;;9.80;79.80;;;;;;5062887;28;20028;-46
2022/04/24 01:43:57;;;;;;;9.52;5.80;;;9.80;80.30;;;;;;5069743;28;20044;-48
2022/04/24 01:46:23;;;;;;;9.70;5.95;;;9.80;80.20;;;;;;5052126;28;20291;-47
2022/04/24 01:48:49;;;;;;;6.40;5.75;;;9.80;80.40;;;;;;5067100;28;20120;-47
2022/04/24 01:51:15;;;;;;;6.50;5.87;;;9.80;80.50;;;;;;5051060;28;20036;-46
2022/04/24 01:53:41;;;;;;;8.07;6.33;;;9.70;80.80;;;;;;5051645;28;20312;-46
2022/04/24 01:56:07;;;;;;;6.55;5.70;;;9.70;80.90;;;;;;5050326;28;20037;-46
2022/04/24 01:58:33;;;;;;;;;;;9.70;81.00;;;;;;5069903;28;20444;-46
2022/04/24 02:00:59;;;;;;;7.20;5.22;;;9.70;81.60;;;;;;5055212;28;19962;-48
2022/04/24 02:03:26;;;;;;;7.20;5.88;;;9.60;80.80;;;;;;5049799;28;20041;-50
2022/04/24 02:05:51;;;;;;;9.43;5.55;;;9.60;80.70;;;;;;5051886;28;21464;-46
2022/04/24 02:08:17;;;;;;;7.45;5.50;;;9.60;80.90;;;;;;5050137;28;20076;-46
2022/04/24 02:10:43;;;;;;;6.80;4.97;;;9.60;80.80;;;;;;5052386;28;20039;-47
2022/04/24 02:13:08;;;;;;;7.73;5.63;;;9.60;80.80;;;;;;5049609;28;20056;-48
2022/04/24 02:15:34;;;;;;;7.30;5.23;;;9.50;80.60;;;;;;5058407;28;20329;-48
2022/04/24 02:18:01;;;;;;;6.03;5.20;;;9.50;80.30;;;;;;5050479;28;20413;-49
2022/04/24 02:20:28;;;;;;;;;;;9.50;80.60;;;;;;5067631;28;20132;-49
2022/04/24 02:22:55;;;;;;;7.45;5.72;;;9.50;81.10;;;;;;5050883;28;19990;-49
2022/04/24 02:25:21;;;;;;;7.60;5.32;;;9.50;80.60;;;;;;5069330;28;20037;-48
2022/04/24 02:27:47;;;;;;;5.55;5.00;;;9.50;80.90;;;;;;5050688;28;20113;-47
2022/04/24 02:30:13;;;;;;;6.30;5.70;;;9.40;81.10;;;;;;5067658;28;20071;-49
2022/04/24 02:32:38;;;;;;;7.00;5.50;;;9.50;81.20;;;;;;5056536;28;20051;-47
2022/04/24 02:35:04;;;;;;;7.40;5.47;;;9.40;80.90;;;;;;5062758;28;20037;-46
2022/04/24 02:37:32;;;;;;;5.88;5.18;;;9.40;81.00;;;;;;5054481;28;20036;-46
2022/04/24 02:39:58;;;;;;;5.63;5.07;;;9.30;80.70;;;;;;5064832;28;20043;-48
2022/04/24 02:42:24;;;;;;;7.35;5.63;;;9.30;80.80;;;;;;5063765;28;20406;-46
2022/04/24 02:44:50;;;;;;;4.90;4.43;;;9.30;80.80;;;;;;5062164;28;20048;-48
2022/04/24 02:47:15;;;;;;;6.20;5.60;;;9.30;80.90;;;;;;5050126;28;20499;-48
2022/04/24 02:49:41;;;;;;;6.50;5.90;;;9.30;80.80;;;;;;5055808;28;20501;-47
2022/04/24 02:52:07;;;;;;;8.27;5.83;;;9.20;80.60;;;;;;5059955;28;20579;-46
2022/04/24 02:54:33;;;;;;;8.25;5.95;;;9.30;81.50;;;;;;5050274;28;20040;-48
2022/04/24 02:56:59;;;;;;;8.13;5.63;;;9.20;81.40;;;;;;5049380;28;20098;-46
2022/04/24 02:59:25;;;;;;;7.53;5.88;;;9.20;81.40;;;;;;5049626;28;20537;-49
2022/04/24 03:01:52;;;;;;;6.55;5.22;;;9.10;81.20;;;;;;5051204;28;20061;-45
2022/04/24 03:04:19;;;;;;;6.00;5.03;;;9.10;81.00;;;;;;5068914;28;20037;-49
2022/04/24 03:06:45;;;;;;;8.63;5.47;;;9.10;80.90;;;;;;5054671;28;20564;-46
2022/04/24 03:09:11;;;;;;;6.55;5.60;;;9.10;81.50;;;;;;5052981;28;20036;-48
2022/04/24 03:11:36;;;;;;;8.23;5.88;;;9.10;82.00;;;;;;5065176;28;20098;-47
2022/04/24 03:14:02;;;;;;;7.70;6.68;;;9.10;81.80;;;;;;5051018;28;20045;-48
2022/04/24 03:16:27;;;;;;;10.27;5.17;;;9.00;81.70;;;;;;5049718;28;20132;-46
2022/04/24 03:18:53;;;;;;;5.27;4.77;;;9.00;81.60;;;;;;5050012;28;20494;-47
2022/04/24 03:21:19;;;;;;;5.70;5.13;;;8.90;81.70;;;;;;5050661;28;20061;-46
2022/04/24 03:23:44;;;;;;;6.93;6.10;;;8.90;81.90;;;;;;5051307;28;20051;-48
2022/04/24 03:26:13;;;;;;;6.03;4.73;;;8.90;81.90;;;;;;5049358;28;20037;-46
2022/04/24 03:28:40;;;;;;;6.07;5.40;;;8.90;81.90;;;;;;5049274;28;20068;-47
2022/04/24 03:31:05;;;;;;;6.90;5.05;;;8.80;81.70;;;;;;5058829;28;20040;-47
2022/04/24 03:33:31;;;;;;;7.27;5.30;;;8.80;81.70;;;;;;5052118;28;20514;-45
2022/04/24 03:35:57;;;;;;;5.13;4.70;;;8.80;82.20;;;;;;5050396;28;20044;-50
2022/04/24 03:38:23;;;;;;;5.07;4.57;;;8.80;81.90;;;;;;5049520;28;20037;-46
2022/04/24 03:40:48;;;;;;;;;;;8.80;82.20;;;;;;5066798;28;20059;-47
2022/04/24 03:43:14;;;;;;;5.78;5.00;;;8.70;81.80;;;;;;5055305;28;20370;-48
2022/04/24 03:45:40;;;;;;;11.40;5.17;;;8.70;81.60;;;;;;5050201;28;20036;-47
2022/04/24 03:48:05;;;;;;;6.07;4.85;;;8.70;81.70;;;;;;5049609;28;20134;-46
2022/04/24 03:50:31;;;;;;;6.57;4.80;;;8.70;82.00;;;;;;5072405;28;20041;-46
2022/04/24 03:52:56;;;;;;;6.23;4.77;;;8.60;81.90;;;;;;5062406;28;20356;-47
2022/04/24 03:55:22;;;;;;;5.97;5.07;;;8.60;82.10;;;;;;5064447;28;20048;-46
2022/04/24 03:57:48;;;;;;;5.83;4.80;;;8.60;82.10;;;;;;5053001;28;20036;-46
2022/04/24 04:00:14;;;;;;;7.60;5.70;;;8.60;82.20;;;;;;5069577;28;20124;-48
2022/04/24 04:02:44;;;;;;;5.68;4.75;;;8.60;82.00;;;;;;5066906;28;20043;-48
2022/04/24 04:05:10;;;;;;;10.20;4.55;;;8.50;82.70;;;;;;5088255;28;20040;-48
2022/04/24 04:07:36;;;;;;;6.10;4.73;;;8.50;82.00;;;;;;5066916;28;20094;-47
2022/04/24 04:10:01;;;;;;;12.70;5.57;;;8.50;82.30;;;;;;5054565;28;20041;-46
2022/04/24 04:12:27;;;;;;;7.90;5.00;;;8.50;82.30;;;;;;5069994;28;20052;-46
2022/04/24 04:14:53;;;;;;;5.53;4.40;;;8.50;82.10;;;;;;5053179;28;20128;-47
2022/04/24 04:17:18;;;;;;;6.50;5.00;;;8.40;81.80;;;;;;5071395;28;20136;-46
2022/04/24 04:19:44;;;;;;;10.48;5.28;;;8.40;82.30;;;;;;5071200;28;20040;-46
2022/04/24 04:22:10;;;;;;;8.07;4.73;;;8.40;82.70;;;;;;5073307;28;20032;-46
2022/04/24 04:24:36;;;;;;;6.97;4.53;;;8.40;82.30;;;;;;5054045;28;20043;-53
2022/04/24 04:27:01;;;;;;;10.75;4.43;;;8.40;82.00;;;;;;5066865;28;20040;-47
2022/04/24 04:29:27;;;;;;;6.77;5.63;;;8.40;82.00;;;;;;5055088;28;20090;-46
2022/04/24 04:31:52;;;;;;;6.37;5.23;;;8.30;82.10;;;;;;5053922;28;20497;-49
2022/04/24 04:34:18;;;;;;;5.47;4.33;;;8.30;82.20;;;;;;5054722;28;20106;-46
2022/04/24 04:36:43;;;;;;;7.70;5.40;;;8.30;82.30;;;;;;5070603;28;20045;-45
2022/04/24 04:39:09;;;;;;;5.17;4.77;;;8.30;82.30;;;;;;5058957;28;20128;-48
2022/04/24 04:41:35;;;;;;;11.13;5.40;;;8.30;82.80;;;;;;5053067;28;20475;-47
2022/04/24 04:44:00;;;;;;;6.60;4.87;;;8.30;82.50;;;;;;5044109;28;20048;-46
2022/04/24 04:46:26;;;;;;;7.20;4.10;;;8.30;82.80;;;;;;5069066;28;20075;-46
2022/04/24 04:48:52;;;;;;;9.18;5.78;;;8.30;82.90;;;;;;5070200;28;20056;-48
2022/04/24 04:51:17;;;;;;;7.63;4.72;;;8.30;83.10;;;;;;5060628;28;20067;-47
2022/04/24 04:53:43;;;;;;;7.03;5.10;;;8.30;83.50;;;;;;5054276;28;20044;-49
2022/04/24 04:56:08;;;;;;;5.47;4.97;;;8.20;83.20;;;;;;5051709;28;20040;-47
2022/04/24 04:58:34;;;;;;;10.70;5.10;;;8.20;83.30;;;;;;5053389;28;20040;-47
2022/04/24 05:01:00;;;;;;;8.60;5.35;;;8.20;83.40;;;;;;5051502;28;20029;-46
2022/04/24 05:03:26;;;;;;;5.57;5.03;;;8.20;83.60;;;;;;5063009;28;20051;-46
2022/04/24 05:05:52;;;;;;;7.38;4.90;;;8.20;83.60;;;;;;5051772;28;20051;-46
2022/04/24 05:08:17;;;;;;;8.90;5.53;;;8.30;84.00;;;;;;5069864;28;20024;-48
2022/04/24 05:10:43;;;;;;;8.10;5.22;;;8.30;83.70;;;;;;5053700;28;20291;-46
2022/04/24 05:13:09;;;;;;;5.87;5.10;;;8.30;83.80;;;;;;5068458;28;20043;-47
2022/04/24 05:15:34;;;;;;;6.80;5.43;;;8.30;83.90;;;;;;5055538;28;20465;-46
2022/04/24 05:18:00;;;;;;;5.97;5.20;;;8.30;83.70;;;;;;5065402;28;20024;-49
2022/04/24 05:20:25;;;;;;;6.57;5.87;;;8.40;84.10;;;;;;5057723;28;20083;-48
2022/04/24 05:22:51;;;;;;;9.57;5.10;;;8.40;83.90;;;;;;5064131;28;20433;-46
2022/04/24 05:25:16;;;;;;;9.97;5.30;;;8.40;84.10;;;;;;5060437;28;20083;-46
2022/04/24 05:27:42;;;;;;;6.45;5.80;;;8.50;83.70;;;;;;5072155;28;20078;-49
2022/04/24 05:30:09;;;;;;;5.57;5.00;;;8.50;83.80;;;;;;5058394;28;20068;-48
2022/04/24 05:32:49;;;;;;;6.93;5.53;;;8.50;83.50;;;;;;5050666;28;20057;-46
2022/04/24 05:35:15;;;;;;;8.30;5.55;;;8.60;83.60;;;;;;5053150;28;20497;-47
2022/04/24 05:37:41;;;;;;;5.78;5.20;;;8.70;83.70;;;;;;5051653;28;20041;-48
2022/04/24 05:40:07;;;;;;;7.30;5.55;;;8.70;83.70;;;;;;5053027;28;20041;-46
2022/04/24 05:42:34;;;;;;;8.63;5.32;;;8.80;83.60;;;;;;5051952;28;20081;-46
2022/04/24 05:45:00;;;;;;;8.30;5.10;;;8.90;83.80;;;;;;5058125;28;20090;-46
2022/04/24 05:47:27;;;;;;;7.85;6.20;;;8.90;83.00;;;;;;5051166;28;20067;-46
2022/04/24 05:49:52;;;;;;;6.80;5.50;;;9.00;83.10;;;;;;5058714;28;20037;-46
2022/04/24 05:52:18;;;;;;;6.20;5.20;;;9.10;83.00;;;;;;5052009;28;20086;-47
2022/04/24 05:54:44;;;;;;;6.05;5.47;;;9.10;82.90;;;;;;5066436;28;20299;-46
2022/04/24 05:57:09;;;;;;;5.53;4.63;;;9.20;82.90;;;;;;5068501;28;20456;-47
2022/04/24 05:59:35;;;;;;;8.27;6.97;;;9.20;82.70;;;;;;5066560;28;20405;-49
2022/04/24 06:02:00;;;;;;;8.07;5.38;;;9.30;82.40;;;;;;5051303;28;20484;-46
2022/04/24 06:04:27;;;;;;;13.57;6.27;;;9.30;82.10;;;;;;5055845;28;20089;-47
2022/04/24 06:06:52;;;;;;;8.85;5.03;;;9.30;81.80;;;;;;5050553;28;20106;-46
2022/04/24 06:09:19;;;;;;;6.90;6.30;;;9.30;81.70;;;;;;5051877;28;20040;-49
2022/04/24 06:11:45;;;;;;;14.98;5.38;;;9.30;81.60;;;;;;5051007;28;20045;-46
2022/04/24 06:14:10;;;;;;;8.23;5.20;;;9.30;81.70;;;;;;5057653;28;20494;-46
2022/04/24 06:16:36;;;;;;;6.77;4.90;;;9.30;81.80;;;;;;5052698;28;20036;-46
2022/04/24 06:19:02;;;;;;;6.30;5.70;;;9.30;81.70;;;;;;5051847;28;20544;-47
2022/04/24 06:21:28;;;;;;;8.50;5.65;;;9.40;81.90;;;;;;5049950;28;20029;-51
2022/04/24 06:23:53;;;;;;;14.77;5.87;;;9.40;82.10;;;;;;5080659;28;20043;-46
2022/04/24 06:26:19;;;;;;;8.17;5.13;;;9.40;82.10;;;;;;5050230;28;20036;-48
2022/04/24 06:28:44;;;;;;;6.07;5.47;;;9.50;82.50;;;;;;5063029;28;20412;-47
2022/04/24 06:31:10;;;;;;;7.30;5.37;;;9.50;82.70;;;;;;5051062;28;20186;-48
2022/04/24 06:33:35;;;;;;;8.60;5.30;;;9.50;82.30;;;;;;5061396;28;20041;-47
2022/04/24 06:36:02;;;;;;;5.90;5.10;;;9.60;82.40;;;;;;5049851;28;20072;-47
2022/04/24 06:38:28;;;;;;;5.80;5.22;;;9.60;82.00;;;;;;5047407;28;20041;-48
2022/04/24 06:40:53;;;;;;;9.02;5.20;;;9.60;82.20;;;;;;5058204;28;20041;-49
2022/04/24 06:43:19;;;;;;;7.37;5.50;;;9.70;82.40;;;;;;5050313;28;20048;-47
2022/04/24 06:45:44;;;;;;;5.10;4.50;;;9.70;82.70;;;;;;5054140;28;20028;-48
2022/04/24 06:48:15;;;;;;;8.93;5.60;;;9.80;82.10;;;;;;5070148;28;20047;-48
2022/04/24 06:50:43;;;;;;;6.22;4.45;;;9.80;82.40;;;;;;5059272;28;20052;-47
2022/04/24 06:53:13;;;;;;;9.80;5.43;;;9.90;81.70;;;;;;5049979;28;20549;-47
2022/04/24 06:55:42;;;;;;;7.43;5.68;;;10.00;82.10;;;;;;5049584;28;20037;-49
2022/04/24 06:58:09;;;;;;;7.55;5.70;;;10.10;81.80;;;;;;5047420;28;20132;-47
2022/04/24 07:00:37;;;;;;;6.50;4.82;;;10.10;82.10;;;;;;5051996;28;20079;-50
2022/04/24 07:03:14;;;;;;;7.55;6.15;;;10.20;81.80;;;;;;5048762;28;20043;-49
2022/04/24 07:05:40;;;;;;;11.32;5.57;;;10.20;81.50;;;;;;5049125;28;20482;-50
2022/04/24 07:08:06;;;;;;;;;;;10.30;80.80;;;;;;5049254;28;20033;-47
2022/04/24 07:10:32;;;;;;;7.50;5.25;;;10.30;81.00;;;;;;5049629;28;20357;-48
2022/04/24 07:12:58;;;;;;;7.03;5.07;;;10.40;80.50;;;;;;5046784;28;20032;-50
2022/04/24 07:15:24;;;;;;;7.10;4.93;;;10.50;80.60;;;;;;5049529;28;20068;-51
2022/04/24 07:17:50;;;;;;;9.38;4.75;;;10.50;80.50;;;;;;5054408;28;20037;-50
2022/04/24 07:20:18;;;;;;;5.22;4.35;;;10.70;80.80;;;;;;5070311;28;20043;-52
2022/04/24 07:22:48;;;;;;;6.45;4.32;;;10.70;80.50;;;;;;5054116;28;20116;-49
2022/04/24 07:25:16;;;;;;;6.18;4.40;;;10.80;81.10;;;;;;5069320;28;20052;-48
2022/04/24 07:27:42;;;;;;;12.07;5.40;;;10.90;81.00;;;;;;5065776;28;20137;-48
2022/04/24 07:30:13;;;;;;;6.15;4.68;;;10.90;79.90;;;;;;5062130;28;20090;-48
2022/04/24 07:32:50;;;;;;;8.93;4.05;;;11.00;79.80;;;;;;5057368;28;20409;-48
2022/04/24 07:35:18;;;;;;;7.47;5.05;;;11.10;79.80;;;;;;5061022;28;20037;-48
2022/04/24 07:37:44;;;;;;;4.22;3.80;;;11.20;79.60;;;;;;5049775;28;20052;-48
2022/04/24 07:40:12;;;;;;;8.02;4.60;;;11.20;79.30;;;;;;5055381;28;20056;-48
2022/04/24 07:42:48;;;;;;;6.07;4.22;;;11.30;79.20;;;;;;5056448;28;20029;-48
2022/04/24 07:45:21;;;;;;;5.95;4.65;;;11.30;78.90;;;;;;5049139;28;20127;-48
2022/04/24 07:47:47;;;;;;;8.88;3.53;;;11.50;79.60;;;;;;5054275;28;20047;-48
2022/04/24 07:50:14;;;;;;;6.47;4.25;;;11.60;79.40;;;;;;5070130;28;20041;-49
2022/04/24 07:52:39;;;;;;;8.55;4.10;;;11.70;79.00;;;;;;5052001;28;20049;-48
2022/04/24 07:55:05;;;;;;;5.80;3.67;;;11.80;78.30;;;;;;5048892;28;20041;-48
2022/04/24 07:57:31;;;;;;;5.53;4.40;;;11.90;78.90;;;;;;5055383;28;20127;-48
2022/04/24 07:59:58;;;;;;;8.95;3.92;;;12.00;77.80;;;;;;5048323;28;20041;-49
2022/04/24 08:02:23;;;;;;;4.20;3.17;;;12.00;77.70;;;;;;5061691;28;20162;-49
2022/04/24 08:04:49;;;;;;;6.22;4.05;;;12.10;78.00;;;;;;5050091;28;20146;-51
2022/04/24 08:07:15;;;;;;;5.73;3.17;;;12.10;77.20;;;;;;5046306;28;20410;-50
2022/04/24 08:09:42;;;;;;;7.20;3.92;;;12.20;77.40;;;;;;5054884;28;20036;-49
2022/04/24 08:12:08;;;;;;;5.55;4.45;;;12.30;77.00;;;;;;5048379;28;20041;-48
2022/04/24 08:14:33;;;;;;;6.68;3.72;;;12.50;76.70;;;;;;5049916;28;20520;-48
2022/04/24 08:16:59;;;;;;;5.07;3.53;;;12.50;76.20;;;;;;5054969;28;20036;-50
2022/04/24 08:19:24;;;;;;;4.63;3.92;;;12.70;75.70;;;;;;5049587;28;20037;-48
2022/04/24 08:21:50;;;;;;;5.22;3.28;;;12.70;76.30;;;;;;5059874;28;20468;-48
2022/04/24 08:24:16;;;;;;;5.35;3.03;;;12.80;76.40;;;;;;5050637;28;20041;-49
2022/04/24 08:26:42;;;;;;;3.78;3.30;;;12.80;76.00;;;;;;5048114;28;20037;-48
2022/04/24 08:29:07;;;;;;;3.78;3.33;;;13.00;76.00;;;;;;5054949;28;20090;-48
2022/04/24 08:31:33;;;;;;;5.53;3.67;;;13.00;75.80;;;;;;5068583;28;20135;-52
2022/04/24 08:33:58;;;;;;;4.67;3.07;;;13.10;75.40;;;;;;5053011;28;20330;-48
2022/04/24 08:36:24;;;;;;;6.70;3.93;;;13.20;75.30;;;;;;5051089;28;20037;-50
2022/04/24 08:38:50;;;;;;;5.63;3.47;;;13.30;75.60;;;;;;5052455;28;20116;-51
2022/04/24 08:41:21;;;;;;;4.47;3.25;;;13.40;75.40;;;;;;5052533;28;20124;-48
2022/04/24 08:43:47;;;;;;;6.22;4.07;;;13.50;74.80;;;;;;5050513;28;20044;-48
2022/04/24 08:46:12;;;;;;;8.20;3.60;;;13.60;75.90;;;;;;5058536;28;20082;-48
2022/04/24 08:48:40;;;;;;;6.40;3.33;;;13.70;75.40;;;;;;5072132;28;20296;-50
2022/04/24 08:51:08;;;;;;;5.20;3.33;;;13.70;75.30;;;;;;5051983;28;20056;-49
2022/04/24 08:53:35;;;;;;;3.08;2.78;;;13.80;75.00;;;;;;5052722;28;20422;-50
2022/04/24 08:56:01;;;;;;;9.93;2.95;;;13.90;73.40;;;;;;5056010;28;20585;-48
2022/04/24 08:58:27;;;;;;;3.05;2.47;;;13.90;73.70;;;;;;5072514;28;20082;-48
2022/04/24 09:00:52;;;;;;;5.07;2.55;;;14.00;73.10;;;;;;5070793;28;20135;-48
2022/04/24 09:03:18;;;;;;;6.10;2.33;;;14.10;73.60;;;;;;5072384;28;20518;-48
2022/04/24 09:05:44;;;;;;;4.93;3.25;;;14.10;72.60;;;;;;5061054;28;20064;-49
2022/04/24 09:08:11;;;;;;;5.57;2.92;;;14.20;72.90;;;;;;5051895;28;20040;-48
2022/04/24 09:10:51;;;;;;;7.72;2.38;;;14.30;73.40;;;;;;5056242;28;20091;-49
2022/04/24 09:16:37;;;;;;;2.45;1.83;;;14.50;72.50;;;;;;5058246;28;20123;-49
2022/04/24 09:19:04;;;;;;;4.70;3.00;;;14.70;70.80;;;;;;5063937;28;20044;-49
2022/04/24 09:21:30;;;;;;;2.28;2.03;;;14.70;69.80;;;;;;5071624;28;20032;-48
2022/04/24 09:24:00;;;;;;;2.95;2.10;;;14.80;69.60;;;;;;5065419;28;20105;-48
2022/04/24 09:26:26;;;;;;;3.70;1.88;;;14.90;70.30;;;;;;5059561;28;20044;-50
2022/04/24 09:28:51;;;;;;;4.35;2.00;;;14.90;70.30;;;;;;5065274;28;20029;-48
2022/04/24 09:31:17;;;;;;;5.15;1.55;;;15.00;69.00;;;;;;5071967;28;20118;-49
2022/04/24 09:33:43;;;;;;;34.80;4.10;;;15.00;70.00;;;;;;5058619;28;20044;-49
2022/04/24 09:36:09;;;;;;;;;;;15.10;68.30;;;;;;5052514;28;20049;-48
2022/04/24 09:38:43;;;;;;;4.60;1.65;;;15.20;68.50;;;;;;5051401;28;19948;-48
2022/04/24 09:41:23;;;;;;;2.95;1.23;;;15.40;68.70;;;;;;5052992;28;20450;-47
2022/04/24 09:43:50;;;;;;;5.00;1.88;;;15.40;68.10;;;;;;5066821;28;20044;-50
2022/04/24 09:46:29;;;;;;;7.65;1.67;;;15.50;67.40;;;;;;5062201;28;20398;-49
2022/04/24 09:48:58;;;;;;;6.43;1.48;;;15.50;65.80;;;;;;5066787;28;20033;-49
2022/04/24 09:51:24;;;;;;;3.65;1.30;;;15.50;66.80;;;;;;5068997;28;20059;-51
2022/04/24 09:53:50;;;;;;;;;;;15.60;66.30;;;;;;5068403;28;20052;-52
2022/04/24 09:56:17;;;;;;;2.78;1.35;;;15.70;66.40;;;;;;5050630;28;19948;-50
2022/04/24 09:58:44;;;;;;;1.15;1.02;;;15.80;67.20;;;;;;5053192;28;20493;-49
2022/04/24 10:01:10;;;;;;;3.17;1.15;;;15.90;66.90;;;;;;5049740;28;20037;-48
2022/04/24 10:03:37;;;;;;;2.55;1.08;;;16.00;65.80;;;;;;5051693;28;20122;-48
2022/04/24 10:06:04;;;;;;;4.13;1.60;;;16.10;66.20;;;;;;5048291;28;20044;-49
2022/04/24 10:08:33;;;;;;;7.53;1.75;;;16.10;66.00;;;;;;5052025;28;20072;-50
2022/04/24 10:11:02;;;;;;;5.22;1.05;;;16.30;66.40;;;;;;5051062;28;20426;-48
2022/04/24 10:13:29;;;;;;;1.95;1.17;;;16.30;65.10;;;;;;5050056;28;20037;-49
2022/04/24 10:16:03;;;;;;;11.18;1.63;;;16.40;64.90;;;;;;5050257;28;20037;-48
2022/04/24 10:19:09;;;;;;;3.97;1.60;;;16.40;64.60;;;;;;5066829;28;20043;-50
2022/04/24 10:21:57;;;;;;;4.25;1.30;;;16.50;66.50;;;;;;5012970;28;20126;-50
2022/04/24 10:24:23;;;;;;;8.23;0.88;;;16.60;63.10;;;;;;5053952;28;20410;-50
2022/04/24 10:27:03;;;;;;;3.80;0.93;;;16.70;64.10;;;;;;5050567;28;20043;-51
2022/04/24 10:29:29;;;;;;;2.03;1.05;;;16.70;64.80;;;;;;5061361;28;20045;-49
2022/04/24 10:31:54;;;;;;;5.55;1.15;;;16.80;63.30;;;;;;5054088;28;20040;-50
2022/04/24 10:34:22;;;;;;;3.28;0.90;;;16.80;64.50;;;;;;5053951;28;20045;-48
2022/04/24 10:36:59;;;;;;;3.88;1.02;;;16.90;64.90;;;;;;5049559;28;20116;-49
2022/04/24 10:39:29;;;;;;;3.47;1.17;;;17.00;64.30;;;;;;5059802;28;20043;-48
2022/04/24 10:42:05;;;;;;;2.53;1.70;;;17.00;64.40;;;;;;5049846;28;20122;-50
2022/04/24 10:44:31;;;;;;;1.48;1.13;;;17.00;64.40;;;;;;5068162;28;20346;-49
2022/04/24 10:46:59;;;;;;;8.27;1.85;;;17.10;63.90;;;;;;5054275;28;20057;-49
2022/04/24 10:49:32;;;;;;;3.75;0.90;;;17.10;64.10;;;;;;5065120;28;20041;-49
2022/04/24 10:52:00;;;;;;;2.00;0.90;;;17.20;62.40;;;;;;5055963;28;20037;-49
2022/04/24 10:54:40;;;;;;;18.45;2.10;;;17.20;63.20;;;;;;5051561;28;20183;-49
2022/04/24 10:57:22;;;;;;;4.50;1.25;;;17.30;60.80;;;;;;5054940;28;20167;-51
2022/04/24 10:59:52;;;;;;;3.42;1.08;;;17.30;61.00;;;;;;5050718;28;20037;-50
2022/04/24 11:02:23;;;;;;;4.55;1.10;;;17.40;62.50;;;;;;5049203;28;20048;-50
2022/04/24 11:05:03;;;;;;;6.78;1.10;;;17.40;63.20;;;;;;5051721;28;20559;-49
2022/04/24 11:07:31;;;;;;;11.85;1.25;;;17.40;59.20;;;;;;5049891;28;20048;-49
2022/04/24 11:10:10;;;;;;;2.83;0.98;;;17.50;61.80;;;;;;5052489;28;20542;-50
2022/04/24 11:12:37;;;;;;;4.43;1.20;;;17.50;61.20;;;;;;5052070;28;20091;-49
2022/04/24 11:15:06;;;;;;;1.63;1.40;;;17.50;61.40;;;;;;5055659;28;20481;-49
2022/04/24 11:17:32;;;;;;;1.67;0.73;;;17.50;60.40;;;;;;5053322;28;20037;-49
2022/04/24 11:20:09;;;;;;;3.03;0.98;;;17.60;60.80;;;;;;5051335;28;20032;-49
2022/04/24 11:22:45;;;;;;;3.03;0.90;;;17.60;60.20;;;;;;5049991;28;20040;-50
2022/04/24 11:25:14;;;;;;;4.38;0.90;;;17.60;60.30;;;;;;5056358;28;20036;-49
2022/04/24 11:27:40;;;;;;;4.50;0.90;;;17.70;60.60;;;;;;5053231;28;20052;-49
2022/04/24 11:30:38;;;;;;;2.15;0.90;;;17.70;61.00;;;;;;5056374;28;20040;-49
2022/04/24 11:33:06;;;;;;;34.60;4.20;;;17.70;57.80;;;;;;5035614;28;20083;-50
2022/04/24 11:35:35;;;;;;;1.02;0.60;;;17.70;59.80;;;;;;5058979;28;20070;-51
2022/04/24 11:38:01;;;;;;;3.85;1.92;;;17.80;59.80;;;;;;5052591;28;20033;-49
2022/04/24 11:40:28;;;;;;;;;;;17.90;59.00;;;;;;5051594;28;20426;-52
2022/04/24 11:43:06;;;;;;;6.32;1.02;;;18.00;59.50;;;;;;5049480;28;20351;-51
2022/04/24 11:51:18;;;;;;;8.73;2.20;;;18.30;59.60;;;;;;5041772;28;20045;-49
2022/04/24 11:53:44;;;;;;;2.78;1.10;;;18.30;60.40;;;;;;5061427;28;20049;-49
2022/04/24 11:56:11;;;;;;;2.67;1.15;;;18.30;60.60;;;;;;5068850;28;20109;-49
2022/04/24 11:58:41;;;;;;;2.88;1.67;;;18.30;60.00;;;;;;5050521;28;20076;-49
2022/04/24 12:01:09;;;;;;;3.28;1.13;;;18.30;57.90;;;;;;5049418;28;20072;-49
2022/04/24 12:03:36;;;;;;;3.15;1.38;;;18.30;57.80;;;;;;5062637;28;20048;-50
2022/04/24 12:06:07;;;;;;;2.53;1.15;;;18.30;59.90;;;;;;5048391;28;20056;-51
2022/04/24 12:08:43;;;;;;;7.68;1.88;;;18.30;60.10;;;;;;5058578;28;20083;-49
2022/04/24 12:11:10;;;;;;;6.65;1.42;;;18.10;57.90;;;;;;5064544;28;20171;-50
2022/04/24 12:13:36;;;;;;;6.18;1.10;;;18.10;59.20;;;;;;5061985;28;20589;-50
2022/04/24 12:16:01;;;;;;;2.30;0.93;;;18.10;59.30;;;;;;5072715;28;20111;-49
2022/04/24 12:18:28;;;;;;;4.68;0.82;;;18.10;59.20;;;;;;5060851;28;20521;-49
2022/04/24 12:20:54;;;;;;;7.75;1.10;;;18.20;59.70;;;;;;5073038;28;20045;-51
2022/04/24 12:23:21;;;;;;;55.80;13.80;;;18.20;59.00;;;;;;5055631;28;20091;-49
2022/04/24 12:25:53;;;;;;;7.25;0.85;;;18.30;58.90;;;;;;5054220;28;20147;-51
2022/04/24 12:28:39;;;;;;;9.63;1.30;;;18.30;57.90;;;;;;5060157;28;20044;-50
2022/04/24 12:31:06;;;;;;;1.40;0.98;;;18.30;57.40;;;;;;5051507;28;20024;-51
2022/04/24 12:33:44;;;;;;;4.00;0.77;;;18.30;58.50;;;;;;5056033;28;20052;-49
2022/04/24 12:36:14;;;;;;;5.20;1.30;;;18.30;58.50;;;;;;5072340;28;20052;-49
2022/04/24 12:38:40;;;;;;;9.43;2.28;;;18.30;59.00;;;;;;5055509;28;20119;-49
2022/04/24 12:41:11;;;;;;;27.67;2.05;;;18.30;59.00;;;;;;5053272;28;20033;-49
2022/04/24 12:43:36;;;;;;;7.93;1.33;;;18.10;58.20;;;;;;5085040;28;20494;-48
2022/04/24 12:46:02;;;;;;;3.33;0.93;;;18.00;57.60;;;;;;5052257;28;20040;-49
2022/04/24 12:48:29;;;;;;;3.53;1.02;;;17.80;58.30;;;;;;5060488;28;20557;-50
2022/04/24 12:50:55;;;;;;;7.90;1.60;;;17.70;58.80;;;;;;5071269;28;20036;-49
2022/04/24 12:53:24;;;;;;;5.30;1.20;;;17.70;59.60;;;;;;5052591;28;20048;-49
2022/04/24 12:55:51;;;;;;;2.58;1.17;;;17.70;59.60;;;;;;5055467;28;20028;-51
2022/04/24 12:58:18;;;;;;;1.90;0.98;;;17.70;60.20;;;;;;5060718;28;20065;-49
2022/04/24 13:00:45;;;;;;;3.90;0.80;;;17.90;60.70;;;;;;5053682;28;20041;-49
2022/04/24 13:03:12;;;;;;;1.42;1.10;;;18.00;58.80;;;;;;5051427;28;20159;-51